sensor_id;sensor_type;location;lat;lon;timestamp;pressure;altitude;pressure_sealevel;temperature;humidity
37206;BME280;23099;42.636;23.198;2023-04-04T00:12:40;90506.59;;;6.47;100.00
37206;BME280;23099;42.636;23.198;2023-04-04T00:15:08;90502.34;;;6.31;100.00
37206;BME280;23099;42.636;23.198;2023-04-04T00:17:35;90506.06;;;6.23;100.00
37206;BME280;23099;42.636;23.198;2023-04-04T00:20:02;90502.91;;;6.07;100.00
37206;BME280;23099;42.636;23.198;2023-04-04T00:22:29;90504.75;;;5.99;100.00
37206;BME280;23099;42.636;23.198;2023-04-04T00:24:55;90507.44;;;6.07;100.00
37206;BME280;23099;42.636;23.198;2023-04-04T00:27:23;90511.97;;;5.99;100.00
37206;BME280;23099;42.636;23.198;2023-04-04T00:29:51;90504.75;;;5.99;100.00
37206;BME280;23099;42.636;23.198;2023-04-04T00:32:18;90512.75;;;6.07;100.00
37206;BME280;23099;42.636;23.198;2023-04-04T00:34:44;90515.03;;;6.05;100.00
37206;BME280;23099;42.636;23.198;2023-04-04T00:37:11;90516.94;;;6.04;100.00
37206;BME280;23099;42.636;23.198;2023-04-04T00:39:38;90519.53;;;6.00;100.00
37206;BME280;23099;42.636;23.198;2023-04-04T00:42:04;90516.19;;;6.11;100.00
37206;BME280;23099;42.636;23.198;2023-04-04T00:44:31;90517.00;;;6.15;100.00
37206;BME280;23099;42.636;23.198;2023-04-04T00:47:01;90511.63;;;6.04;100.00
37206;BME280;23099;42.636;23.198;2023-04-04T00:49:28;90506.69;;;6.06;100.00
37206;BME280;23099;42.636;23.198;2023-04-04T00:51:55;90520.41;;;6.15;100.00
37206;BME280;23099;42.636;23.198;2023-04-04T00:54:22;90531.81;;;6.23;100.00
37206;BME280;23099;42.636;23.198;2023-04-04T08:32:11;90848.41;;;4.76;98.23
37206;BME280;23099;42.636;23.198;2023-04-04T08:34:39;90839.78;;;4.59;99.62
37206;BME280;23099;42.636;23.198;2023-04-04T08:37:06;90856.69;;;4.74;100.00
37206;BME280;23099;42.636;23.198;2023-04-04T08:39:33;90853.69;;;4.76;100.00
37206;BME280;23099;42.636;23.198;2023-04-04T08:42:02;90851.41;;;4.74;99.20
37206;BME280;23099;42.636;23.198;2023-04-04T08:44:30;90863.91;;;4.77;99.37
37206;BME280;23099;42.636;23.198;2023-04-04T08:46:58;90853.69;;;4.76;98.11
37206;BME280;23099;42.636;23.198;2023-04-04T08:49:28;90860.56;;;4.80;99.96
37206;BME280;23099;42.636;23.198;2023-04-04T08:51:58;90868.19;;;4.62;97.22
37206;BME280;23099;42.636;23.198;2023-04-04T08:54:27;90871.72;;;4.70;99.06
37206;BME280;23099;42.636;23.198;2023-04-04T08:56:56;90869.00;;;4.67;98.05
37206;BME280;23099;42.636;23.198;2023-04-04T08:59:23;90877.03;;;4.70;97.80
37206;BME280;23099;42.636;23.198;2023-04-04T09:01:56;90885.19;;;4.61;97.15
37206;BME280;23099;42.636;23.198;2023-04-04T09:04:28;90887.94;;;4.46;96.46
37206;BME280;23099;42.636;23.198;2023-04-04T09:06:55;90893.06;;;4.39;98.56
37206;BME280;23099;42.636;23.198;2023-04-04T09:09:23;90893.22;;;4.46;99.57
37206;BME280;23099;42.636;23.198;2023-04-04T09:11:50;90880.94;;;4.38;98.98
37206;BME280;23099;42.636;23.198;2023-04-04T09:14:18;90895.50;;;4.47;99.50
37206;BME280;23099;42.636;23.198;2023-04-04T09:16:46;90895.28;;;4.56;98.62
37206;BME280;23099;42.636;23.198;2023-04-04T09:19:13;90898.00;;;4.40;96.81
37206;BME280;23099;42.636;23.198;2023-04-04T09:21:45;90893.84;;;4.39;97.37
37206;BME280;23099;42.636;23.198;2023-04-04T09:24:12;90894.94;;;4.38;97.49
37206;BME280;23099;42.636;23.198;2023-04-04T09:26:48;90889.72;;;4.42;98.16
37206;BME280;23099;42.636;23.198;2023-04-04T09:29:16;90891.97;;;4.40;97.79
37206;BME280;23099;42.636;23.198;2023-04-04T09:31:43;90893.56;;;4.44;97.77
37206;BME280;23099;42.636;23.198;2023-04-04T09:34:11;90896.06;;;4.37;95.04
37206;BME280;23099;42.636;23.198;2023-04-04T09:36:40;90900.88;;;4.32;95.29
37206;BME280;23099;42.636;23.198;2023-04-04T09:39:07;90897.56;;;4.19;95.33
37206;BME280;23099;42.636;23.198;2023-04-04T09:41:36;90901.16;;;4.26;96.99
37206;BME280;23099;42.636;23.198;2023-04-04T09:44:04;90913.53;;;4.22;95.83
37206;BME280;23099;42.636;23.198;2023-04-04T09:46:31;90911.56;;;4.19;95.85
37206;BME280;23099;42.636;23.198;2023-04-04T09:49:00;90908.22;;;4.22;95.46
37206;BME280;23099;42.636;23.198;2023-04-04T09:51:32;90914.22;;;4.19;95.88
37206;BME280;23099;42.636;23.198;2023-04-04T09:54:01;90913.41;;;4.15;94.21
37206;BME280;23099;42.636;23.198;2023-04-04T09:56:28;90914.03;;;4.28;95.85
37206;BME280;23099;42.636;23.198;2023-04-04T09:58:55;90918.28;;;4.33;95.89
37206;BME280;23099;42.636;23.198;2023-04-04T10:01:22;90919.59;;;4.42;95.10
37206;BME280;23099;42.636;23.198;2023-04-04T10:03:53;90916.38;;;4.33;93.26
37206;BME280;23099;42.636;23.198;2023-04-04T10:06:20;90917.28;;;4.41;94.63
37206;BME280;23099;42.636;23.198;2023-04-04T10:08:47;90915.97;;;4.50;94.07
37206;BME280;23099;42.636;23.198;2023-04-04T10:11:28;90912.28;;;4.55;92.96
37206;BME280;23099;42.636;23.198;2023-04-04T10:13:56;90913.97;;;4.44;92.13
37206;BME280;23099;42.636;23.198;2023-04-04T10:16:23;90915.34;;;4.57;91.90
37206;BME280;23099;42.636;23.198;2023-04-04T10:18:51;90928.06;;;4.51;90.59
37206;BME280;23099;42.636;23.198;2023-04-04T10:21:18;90928.06;;;4.51;90.64
37206;BME280;23099;42.636;23.198;2023-04-04T10:23:45;90928.16;;;4.55;91.72
37206;BME280;23099;42.636;23.198;2023-04-04T10:26:12;90924.75;;;4.74;93.10
37206;BME280;23099;42.636;23.198;2023-04-04T10:28:42;90932.38;;;4.79;90.78
37206;BME280;23099;42.636;23.198;2023-04-04T10:31:15;90930.03;;;4.54;90.65
37206;BME280;23099;42.636;23.198;2023-04-04T10:33:46;90933.22;;;4.63;90.18
37206;BME280;23099;42.636;23.198;2023-04-04T10:36:20;90929.34;;;4.57;89.61
37206;BME280;23099;42.636;23.198;2023-04-04T10:39:01;90940.81;;;4.65;87.83
37206;BME280;23099;42.636;23.198;2023-04-04T10:41:31;90940.19;;;4.72;88.68
37206;BME280;23099;42.636;23.198;2023-04-04T10:44:10;90944.31;;;4.69;88.93
37206;BME280;23099;42.636;23.198;2023-04-04T10:46:40;90949.44;;;4.62;87.84
37206;BME280;23099;42.636;23.198;2023-04-04T10:49:09;90952.09;;;4.62;87.66
37206;BME280;23099;42.636;23.198;2023-04-04T10:51:36;90948.06;;;4.68;86.38
37206;BME280;23099;42.636;23.198;2023-04-04T10:54:03;90948.28;;;4.59;89.54
37206;BME280;23099;42.636;23.198;2023-04-04T10:56:30;90958.53;;;4.61;88.54
37206;BME280;23099;42.636;23.198;2023-04-04T10:59:11;90963.38;;;4.40;88.97
37206;BME280;23099;42.636;23.198;2023-04-04T11:01:54;90967.13;;;4.39;88.88
37206;BME280;23099;42.636;23.198;2023-04-04T11:04:30;90969.22;;;4.30;89.91
37206;BME280;23099;42.636;23.198;2023-04-04T11:07:06;90974.81;;;4.09;88.76
37206;BME280;23099;42.636;23.198;2023-04-04T11:09:51;90972.00;;;4.17;89.82
37206;BME280;23099;42.636;23.198;2023-04-04T11:12:28;90973.81;;;4.33;90.55
37206;BME280;23099;42.636;23.198;2023-04-04T11:15:06;90970.53;;;4.39;89.73
37206;BME280;23099;42.636;23.198;2023-04-04T11:17:58;90981.97;;;4.43;87.59
37206;BME280;23099;42.636;23.198;2023-04-04T11:20:30;90983.34;;;4.37;90.29
37206;BME280;23099;42.636;23.198;2023-04-04T11:23:05;90985.22;;;4.37;88.72
37206;BME280;23099;42.636;23.198;2023-04-04T11:25:37;90991.72;;;4.39;88.73
37206;BME280;23099;42.636;23.198;2023-04-04T11:28:11;90984.31;;;4.48;88.99
37206;BME280;23099;42.636;23.198;2023-04-04T11:30:41;90996.41;;;4.46;88.76
37206;BME280;23099;42.636;23.198;2023-04-04T11:33:25;90999.13;;;4.34;86.65
37206;BME280;23099;42.636;23.198;2023-04-04T11:35:57;90996.56;;;4.18;87.32
37206;BME280;23099;42.636;23.198;2023-04-04T11:38:26;90996.41;;;3.95;88.05
37206;BME280;23099;42.636;23.198;2023-04-04T11:40:54;90994.09;;;4.09;88.84
37206;BME280;23099;42.636;23.198;2023-04-04T11:43:22;90999.63;;;4.04;89.27
37206;BME280;23099;42.636;23.198;2023-04-04T11:45:50;91004.25;;;4.07;89.18
37206;BME280;23099;42.636;23.198;2023-04-04T11:48:21;91003.31;;;4.00;87.04
37206;BME280;23099;42.636;23.198;2023-04-04T11:50:48;91005.78;;;3.92;87.74
37206;BME280;23099;42.636;23.198;2023-04-04T11:53:15;91006.00;;;3.84;88.76
37206;BME280;23099;42.636;23.198;2023-04-04T11:55:43;91001.91;;;3.86;88.23
37206;BME280;23099;42.636;23.198;2023-04-04T11:58:13;91000.53;;;3.77;87.29
37206;BME280;23099;42.636;23.198;2023-04-04T12:00:40;91001.22;;;3.74;88.21
37206;BME280;23099;42.636;23.198;2023-04-04T12:03:10;91004.03;;;3.65;89.27
37206;BME280;23099;42.636;23.198;2023-04-04T12:05:38;91004.22;;;3.72;89.33
37206;BME280;23099;42.636;23.198;2023-04-04T12:08:06;91006.50;;;3.74;88.24
37206;BME280;23099;42.636;23.198;2023-04-04T12:10:34;90997.06;;;3.73;88.29
37206;BME280;23099;42.636;23.198;2023-04-04T12:13:04;91003.34;;;3.68;86.12
37206;BME280;23099;42.636;23.198;2023-04-04T12:15:33;91011.09;;;3.61;88.96
37206;BME280;23099;42.636;23.198;2023-04-04T12:18:00;91001.28;;;3.62;89.67
37206;BME280;23099;42.636;23.198;2023-04-04T12:20:29;91005.06;;;3.61;89.09
37206;BME280;23099;42.636;23.198;2023-04-04T12:22:59;91002.34;;;3.57;88.47
37206;BME280;23099;42.636;23.198;2023-04-04T12:25:26;90999.19;;;3.67;89.73
37206;BME280;23099;42.636;23.198;2023-04-04T12:27:58;91006.53;;;3.58;89.78
37206;BME280;23099;42.636;23.198;2023-04-04T12:30:26;91011.19;;;3.49;88.40
37206;BME280;23099;42.636;23.198;2023-04-04T12:32:53;91006.84;;;3.57;87.78
37206;BME280;23099;42.636;23.198;2023-04-04T12:35:20;91007.09;;;3.51;89.48
37206;BME280;23099;42.636;23.198;2023-04-04T12:37:57;91001.38;;;3.49;88.59
37206;BME280;23099;42.636;23.198;2023-04-04T12:40:28;91012.81;;;3.38;87.74
37206;BME280;23099;42.636;23.198;2023-04-04T12:42:58;91011.47;;;3.44;90.18
37206;BME280;23099;42.636;23.198;2023-04-04T12:45:25;91012.56;;;3.43;89.63
37206;BME280;23099;42.636;23.198;2023-04-04T12:47:52;91008.72;;;3.40;88.98
37206;BME280;23099;42.636;23.198;2023-04-04T12:50:21;91009.63;;;3.32;90.34
37206;BME280;23099;42.636;23.198;2023-04-04T12:52:50;91008.28;;;3.23;91.49
37206;BME280;23099;42.636;23.198;2023-04-04T12:55:19;91020.03;;;3.25;90.50
37206;BME280;23099;42.636;23.198;2023-04-04T12:57:47;91016.88;;;3.35;91.28
37206;BME280;23099;42.636;23.198;2023-04-04T13:00:15;91021.06;;;3.36;89.82
37206;BME280;23099;42.636;23.198;2023-04-04T13:02:44;91033.00;;;3.30;90.85
37206;BME280;23099;42.636;23.198;2023-04-04T13:05:12;91027.72;;;3.30;91.51
37206;BME280;23099;42.636;23.198;2023-04-04T13:07:39;91030.28;;;3.42;91.46
37206;BME280;23099;42.636;23.198;2023-04-04T13:10:09;91030.53;;;3.37;91.54
37206;BME280;23099;42.636;23.198;2023-04-04T13:12:54;91038.44;;;3.37;91.36
37206;BME280;23099;42.636;23.198;2023-04-04T13:15:23;91042.25;;;3.24;90.15
37206;BME280;23099;42.636;23.198;2023-04-04T13:17:50;91041.22;;;3.13;90.27
37206;BME280;23099;42.636;23.198;2023-04-04T13:20:18;91054.69;;;3.24;91.03
37206;BME280;23099;42.636;23.198;2023-04-04T13:22:46;91052.22;;;3.15;90.60
37206;BME280;23099;42.636;23.198;2023-04-04T13:25:12;91052.44;;;3.10;91.02
37206;BME280;23099;42.636;23.198;2023-04-04T13:27:39;91057.13;;;3.01;89.68
37206;BME280;23099;42.636;23.198;2023-04-04T13:30:08;91055.72;;;2.91;91.34
37206;BME280;23099;42.636;23.198;2023-04-04T13:32:35;91057.06;;;2.85;90.68
37206;BME280;23099;42.636;23.198;2023-04-04T13:35:02;91060.25;;;2.78;92.62
37206;BME280;23099;42.636;23.198;2023-04-04T13:37:29;91063.16;;;2.73;91.69
37206;BME280;23099;42.636;23.198;2023-04-04T13:39:55;91078.84;;;2.82;92.10
37206;BME280;23099;42.636;23.198;2023-04-04T13:42:22;91083.53;;;2.89;93.33
37206;BME280;23099;42.636;23.198;2023-04-04T13:44:54;91087.97;;;2.84;92.52
37206;BME280;23099;42.636;23.198;2023-04-04T13:47:22;91082.91;;;2.79;89.50
37206;BME280;23099;42.636;23.198;2023-04-04T13:49:51;91084.34;;;2.77;93.11
37206;BME280;23099;42.636;23.198;2023-04-04T13:52:18;91090.38;;;2.77;90.78
37206;BME280;23099;42.636;23.198;2023-04-04T13:54:45;91094.06;;;2.61;92.24
37206;BME280;23099;42.636;23.198;2023-04-04T13:57:11;91094.94;;;2.65;92.47
37206;BME280;23099;42.636;23.198;2023-04-04T13:59:38;91103.50;;;2.62;91.71
37206;BME280;23099;42.636;23.198;2023-04-04T14:02:05;91098.66;;;2.64;92.52
37206;BME280;23099;42.636;23.198;2023-04-04T14:04:33;91101.84;;;2.69;90.24
37206;BME280;23099;42.636;23.198;2023-04-04T14:07:00;91099.66;;;2.71;89.67
37206;BME280;23099;42.636;23.198;2023-04-04T14:09:26;91116.00;;;2.77;92.54
37206;BME280;23099;42.636;23.198;2023-04-04T14:11:53;91117.88;;;2.76;91.38
37206;BME280;23099;42.636;23.198;2023-04-04T14:14:20;91121.31;;;2.65;90.42
37206;BME280;23099;42.636;23.198;2023-04-04T14:16:47;91121.09;;;2.45;92.46
37206;BME280;23099;42.636;23.198;2023-04-04T14:19:13;91116.94;;;2.57;91.47
37206;BME280;23099;42.636;23.198;2023-04-04T14:21:42;91121.22;;;2.49;92.79
37206;BME280;23099;42.636;23.198;2023-04-04T14:24:08;91120.47;;;2.36;91.17
37206;BME280;23099;42.636;23.198;2023-04-04T14:26:35;91119.81;;;2.27;92.20
37206;BME280;23099;42.636;23.198;2023-04-04T14:29:02;91130.47;;;2.19;93.12
37206;BME280;23099;42.636;23.198;2023-04-04T14:31:29;91135.41;;;2.32;92.84
37206;BME280;23099;42.636;23.198;2023-04-04T14:33:57;91132.56;;;2.25;92.36
37206;BME280;23099;42.636;23.198;2023-04-04T14:36:24;91144.28;;;2.03;93.20
37206;BME280;23099;42.636;23.198;2023-04-04T14:38:52;91129.38;;;1.95;93.04
37206;BME280;23099;42.636;23.198;2023-04-04T14:41:19;91141.66;;;1.91;91.94
37206;BME280;23099;42.636;23.198;2023-04-04T14:43:46;91143.81;;;1.77;93.13
37206;BME280;23099;42.636;23.198;2023-04-04T14:46:13;91146.91;;;1.79;94.09
37206;BME280;23099;42.636;23.198;2023-04-04T14:48:40;91137.72;;;1.85;93.89
37206;BME280;23099;42.636;23.198;2023-04-04T14:51:07;91143.84;;;1.89;92.99
37206;BME280;23099;42.636;23.198;2023-04-04T14:53:33;91153.53;;;1.97;92.97
37206;BME280;23099;42.636;23.198;2023-04-04T14:56:02;91155.06;;;1.98;92.32
37206;BME280;23099;42.636;23.198;2023-04-04T14:58:29;91158.47;;;1.99;91.26
37206;BME280;23099;42.636;23.198;2023-04-04T15:00:56;91163.50;;;2.04;92.10
37206;BME280;23099;42.636;23.198;2023-04-04T15:03:22;91157.91;;;2.05;93.18
37206;BME280;23099;42.636;23.198;2023-04-04T15:05:49;91171.97;;;1.97;92.75
37206;BME280;23099;42.636;23.198;2023-04-04T15:08:16;91166.25;;;1.95;92.77
37206;BME280;23099;42.636;23.198;2023-04-04T15:10:43;91178.03;;;2.10;93.53
37206;BME280;23099;42.636;23.198;2023-04-04T15:13:11;91180.31;;;1.99;91.52
37206;BME280;23099;42.636;23.198;2023-04-04T15:15:37;91175.59;;;1.93;89.59
37206;BME280;23099;42.636;23.198;2023-04-04T15:18:04;91181.88;;;2.00;90.51
37206;BME280;23099;42.636;23.198;2023-04-04T15:20:31;91176.28;;;2.02;92.16
37206;BME280;23099;42.636;23.198;2023-04-04T15:22:58;91176.03;;;1.95;89.54
37206;BME280;23099;42.636;23.198;2023-04-04T15:25:24;91185.28;;;2.01;90.96
37206;BME280;23099;42.636;23.198;2023-04-04T15:27:51;91184.69;;;1.95;91.27
37206;BME280;23099;42.636;23.198;2023-04-04T15:30:19;91184.59;;;2.04;91.76
37206;BME280;23099;42.636;23.198;2023-04-04T15:32:46;91191.84;;;2.07;91.69
37206;BME280;23099;42.636;23.198;2023-04-04T15:35:17;91187.81;;;2.09;90.77
37206;BME280;23099;42.636;23.198;2023-04-04T15:37:44;91187.56;;;2.02;90.86
37206;BME280;23099;42.636;23.198;2023-04-04T15:40:11;91183.41;;;2.13;90.76
37206;BME280;23099;42.636;23.198;2023-04-04T15:42:38;91193.63;;;2.15;90.28
37206;BME280;23099;42.636;23.198;2023-04-04T15:45:06;91198.78;;;2.11;88.83
37206;BME280;23099;42.636;23.198;2023-04-04T15:47:34;91199.69;;;2.16;88.73
37206;BME280;23099;42.636;23.198;2023-04-04T15:50:01;91200.97;;;2.09;88.99
37206;BME280;23099;42.636;23.198;2023-04-04T15:52:28;91207.53;;;2.03;88.92
37206;BME280;23099;42.636;23.198;2023-04-04T15:54:55;91204.59;;;2.05;89.28
37206;BME280;23099;42.636;23.198;2023-04-04T15:57:21;91211.28;;;2.02;89.10
37206;BME280;23099;42.636;23.198;2023-04-04T15:59:48;91211.28;;;2.02;89.26
37206;BME280;23099;42.636;23.198;2023-04-04T16:02:15;91211.06;;;2.07;89.79
37206;BME280;23099;42.636;23.198;2023-04-04T16:04:43;91217.25;;;2.11;89.83
37206;BME280;23099;42.636;23.198;2023-04-04T16:07:10;91217.66;;;2.01;89.03
37206;BME280;23099;42.636;23.198;2023-04-04T16:09:36;91217.06;;;1.84;88.55
37206;BME280;23099;42.636;23.198;2023-04-04T16:12:03;91218.22;;;1.74;89.41
37206;BME280;23099;42.636;23.198;2023-04-04T16:14:30;91220.88;;;1.74;89.24
37206;BME280;23099;42.636;23.198;2023-04-04T16:16:57;91216.50;;;1.78;90.73
37206;BME280;23099;42.636;23.198;2023-04-04T16:19:26;91223.50;;;1.74;90.08
37206;BME280;23099;42.636;23.198;2023-04-04T16:21:55;91232.75;;;1.80;90.70
37206;BME280;23099;42.636;23.198;2023-04-04T16:24:21;91233.66;;;1.84;91.78
37206;BME280;23099;42.636;23.198;2023-04-04T16:26:48;91235.19;;;1.85;90.07
37206;BME280;23099;42.636;23.198;2023-04-04T16:29:16;91234.19;;;1.90;89.81
37206;BME280;23099;42.636;23.198;2023-04-04T16:31:43;91236.06;;;1.89;89.65
37206;BME280;23099;42.636;23.198;2023-04-04T16:34:10;91233.31;;;1.86;91.01
37206;BME280;23099;42.636;23.198;2023-04-04T16:36:36;91231.00;;;1.84;90.56
37206;BME280;23099;42.636;23.198;2023-04-04T16:39:04;91236.28;;;1.84;91.63
37206;BME280;23099;42.636;23.198;2023-04-04T16:41:31;91244.97;;;1.85;90.02
37206;BME280;23099;42.636;23.198;2023-04-04T16:43:59;91245.06;;;1.88;89.09
37206;BME280;23099;42.636;23.198;2023-04-04T16:46:25;91244.22;;;1.63;89.01
37206;BME280;23099;42.636;23.198;2023-04-04T16:48:52;91245.53;;;1.57;90.67
37206;BME280;23099;42.636;23.198;2023-04-04T16:51:19;91246.06;;;1.63;91.70
37206;BME280;23099;42.636;23.198;2023-04-04T16:53:46;91251.47;;;1.66;90.83
37206;BME280;23099;42.636;23.198;2023-04-04T16:56:14;91252.38;;;1.70;91.76
37206;BME280;23099;42.636;23.198;2023-04-04T16:58:40;91251.91;;;1.68;90.96
37206;BME280;23099;42.636;23.198;2023-04-04T17:01:11;91255.91;;;1.54;90.31
37206;BME280;23099;42.636;23.198;2023-04-04T17:03:39;91263.94;;;1.57;91.09
37206;BME280;23099;42.636;23.198;2023-04-04T17:06:06;91257.06;;;1.65;91.41
37206;BME280;23099;42.636;23.198;2023-04-04T17:08:32;91265.22;;;1.72;91.71
37206;BME280;23099;42.636;23.198;2023-04-04T17:10:59;91268.22;;;1.62;91.35
37206;BME280;23099;42.636;23.198;2023-04-04T17:13:27;91267.78;;;1.60;91.43
37206;BME280;23099;42.636;23.198;2023-04-04T17:15:54;91276.44;;;1.60;90.52
37206;BME280;23099;42.636;23.198;2023-04-04T17:18:21;91279.94;;;1.52;90.24
37206;BME280;23099;42.636;23.198;2023-04-04T17:20:48;91274.81;;;1.35;90.91
37206;BME280;23099;42.636;23.198;2023-04-04T17:23:16;91286.06;;;1.44;91.19
37206;BME280;23099;42.636;23.198;2023-04-04T17:25:42;91286.06;;;1.44;90.21
37206;BME280;23099;42.636;23.198;2023-04-04T17:28:09;91286.16;;;1.48;90.63
37206;BME280;23099;42.636;23.198;2023-04-04T17:30:37;91288.03;;;1.47;90.54
37206;BME280;23099;42.636;23.198;2023-04-04T17:33:04;91290.66;;;1.47;90.89
37206;BME280;23099;42.636;23.198;2023-04-04T17:35:31;91293.97;;;1.44;90.08
37206;BME280;23099;42.636;23.198;2023-04-04T17:37:57;91303.06;;;1.47;89.11
37206;BME280;23099;42.636;23.198;2023-04-04T17:40:24;91308.25;;;1.34;89.07
37206;BME280;23099;42.636;23.198;2023-04-04T17:42:51;91314.16;;;1.31;90.19
37206;BME280;23099;42.636;23.198;2023-04-04T17:45:18;91308.88;;;1.31;90.76
37206;BME280;23099;42.636;23.198;2023-04-04T17:47:46;91318.78;;;1.34;91.02
37206;BME280;23099;42.636;23.198;2023-04-04T17:50:13;91319.63;;;1.26;90.87
37206;BME280;23099;42.636;23.198;2023-04-04T17:52:40;91317.13;;;1.30;91.60
37206;BME280;23099;42.636;23.198;2023-04-04T17:55:07;91318.72;;;1.22;90.96
37206;BME280;23099;42.636;23.198;2023-04-04T17:57:34;91319.75;;;1.30;91.88
37206;BME280;23099;42.636;23.198;2023-04-04T18:00:01;91325.13;;;1.13;91.47
37206;BME280;23099;42.636;23.198;2023-04-04T18:02:28;91335.34;;;1.14;93.07
37206;BME280;23099;42.636;23.198;2023-04-04T18:04:56;91338.22;;;1.21;93.05
37206;BME280;23099;42.636;23.198;2023-04-04T18:07:23;91345.13;;;1.05;91.37
37206;BME280;23099;42.636;23.198;2023-04-04T18:09:50;91345.31;;;1.00;90.76
37206;BME280;23099;42.636;23.198;2023-04-04T18:12:17;91350.75;;;0.95;91.34
37206;BME280;23099;42.636;23.198;2023-04-04T18:14:43;91346.84;;;1.01;92.66
37206;BME280;23099;42.636;23.198;2023-04-04T18:17:10;91348.72;;;1.00;93.09
37206;BME280;23099;42.636;23.198;2023-04-04T18:19:37;91347.34;;;0.94;91.81
37206;BME280;23099;42.636;23.198;2023-04-04T18:22:07;91348.75;;;0.92;92.68
37206;BME280;23099;42.636;23.198;2023-04-04T18:24:34;91353.22;;;0.91;93.85
37206;BME280;23099;42.636;23.198;2023-04-04T18:27:00;91352.47;;;0.91;93.99
37206;BME280;23099;42.636;23.198;2023-04-04T18:29:27;91352.50;;;0.82;94.23
37206;BME280;23099;42.636;23.198;2023-04-04T18:31:55;91356.84;;;0.78;93.92
37206;BME280;23099;42.636;23.198;2023-04-04T18:34:24;91357.00;;;0.82;94.70
37206;BME280;23099;42.636;23.198;2023-04-04T18:36:51;91352.88;;;0.72;93.19
37206;BME280;23099;42.636;23.198;2023-04-04T18:39:19;91359.78;;;0.77;93.90
37206;BME280;23099;42.636;23.198;2023-04-04T18:41:46;91358.56;;;0.74;93.83
37206;BME280;23099;42.636;23.198;2023-04-04T18:44:13;91353.94;;;0.71;92.69
37206;BME280;23099;42.636;23.198;2023-04-04T18:46:40;91355.34;;;0.68;94.07
37206;BME280;23099;42.636;23.198;2023-04-04T18:49:07;91366.91;;;0.76;94.84
37206;BME280;23099;42.636;23.198;2023-04-04T18:51:33;91362.47;;;0.68;94.52
37206;BME280;23099;42.636;23.198;2023-04-04T18:54:00;91360.16;;;0.66;95.30
37206;BME280;23099;42.636;23.198;2023-04-04T18:56:28;91368.03;;;0.66;94.14
37206;BME280;23099;42.636;23.198;2023-04-04T18:58:55;91369.44;;;0.64;94.34
37206;BME280;23099;42.636;23.198;2023-04-04T19:01:22;91368.69;;;0.55;94.76
37206;BME280;23099;42.636;23.198;2023-04-04T19:03:48;91380.44;;;0.57;95.01
37206;BME280;23099;42.636;23.198;2023-04-04T19:06:18;91371.78;;;0.57;96.52
37206;BME280;23099;42.636;23.198;2023-04-04T19:08:44;91379.81;;;0.60;96.73
37206;BME280;23099;42.636;23.198;2023-04-04T19:11:11;91380.88;;;0.59;95.75
37206;BME280;23099;42.636;23.198;2023-04-04T19:13:41;91385.34;;;0.67;95.61
37206;BME280;23099;42.636;23.198;2023-04-04T19:16:08;91385.06;;;0.69;95.58
37206;BME280;23099;42.636;23.198;2023-04-04T19:18:34;91389.50;;;0.77;95.28
37206;BME280;23099;42.636;23.198;2023-04-04T19:21:01;91388.88;;;0.80;95.28
37206;BME280;23099;42.636;23.198;2023-04-04T19:23:29;91385.16;;;0.81;94.26
37206;BME280;23099;42.636;23.198;2023-04-04T19:25:56;91391.50;;;0.80;93.86
37206;BME280;23099;42.636;23.198;2023-04-04T19:28:26;91385.66;;;0.66;94.08
37206;BME280;23099;42.636;23.198;2023-04-04T19:30:54;91394.91;;;0.81;94.90
37206;BME280;23099;42.636;23.198;2023-04-04T19:33:23;91395.19;;;0.88;93.44
37206;BME280;23099;42.636;23.198;2023-04-04T19:35:52;91391.97;;;0.74;91.79
37206;BME280;23099;42.636;23.198;2023-04-04T19:38:21;91399.25;;;0.77;92.98
37206;BME280;23099;42.636;23.198;2023-04-04T19:40:49;91398.19;;;0.69;93.26
37206;BME280;23099;42.636;23.198;2023-04-04T19:43:19;91397.13;;;0.70;93.31
37206;BME280;23099;42.636;23.198;2023-04-04T19:45:48;91401.88;;;0.77;94.57
37206;BME280;23099;42.636;23.198;2023-04-04T19:48:44;91401.56;;;0.78;93.91
37206;BME280;23099;42.636;23.198;2023-04-04T19:51:37;91404.50;;;0.77;93.07
37206;BME280;23099;42.636;23.198;2023-04-04T19:54:06;91404.09;;;0.66;93.34
37206;BME280;23099;42.636;23.198;2023-04-04T19:56:36;91406.09;;;0.69;94.08
37206;BME280;23099;42.636;23.198;2023-04-04T19:59:04;91399.13;;;0.64;93.74
37206;BME280;23099;42.636;23.198;2023-04-04T20:01:31;91414.28;;;0.67;94.00
37206;BME280;23099;42.636;23.198;2023-04-04T20:04:05;91408.09;;;0.72;94.27
37206;BME280;23099;42.636;23.198;2023-04-04T20:06:33;91408.22;;;0.76;94.06
37206;BME280;23099;42.636;23.198;2023-04-04T20:09:01;91401.56;;;0.78;92.74
37206;BME280;23099;42.636;23.198;2023-04-04T20:11:29;91398.97;;;0.69;93.15
37206;BME280;23099;42.636;23.198;2023-04-04T20:13:56;91399.56;;;0.75;93.44
37206;BME280;23099;42.636;23.198;2023-04-04T20:16:24;91398.66;;;0.62;92.87
37206;BME280;23099;42.636;23.198;2023-04-04T20:18:51;91403.00;;;0.58;93.26
37206;BME280;23099;42.636;23.198;2023-04-04T20:21:20;91394.19;;;0.63;93.40
37206;BME280;23099;42.636;23.198;2023-04-04T20:23:49;91392.47;;;0.58;92.69
37206;BME280;23099;42.636;23.198;2023-04-04T20:26:37;91398.97;;;0.61;92.60
37206;BME280;23099;42.636;23.198;2023-04-04T20:29:06;91395.13;;;0.58;92.80
37206;BME280;23099;42.636;23.198;2023-04-04T20:31:33;91403.31;;;0.65;92.78
37206;BME280;23099;42.636;23.198;2023-04-04T20:34:00;91405.28;;;0.77;93.41
37206;BME280;23099;42.636;23.198;2023-04-04T20:36:30;91403.56;;;0.81;94.21
37206;BME280;23099;42.636;23.198;2023-04-04T20:38:58;91405.75;;;0.79;93.65
37206;BME280;23099;42.636;23.198;2023-04-04T20:41:25;91405.44;;;0.81;93.04
37206;BME280;23099;42.636;23.198;2023-04-04T20:43:53;91402.06;;;0.72;92.56
37206;BME280;23099;42.636;23.198;2023-04-04T20:46:20;91409.16;;;0.80;93.33
37206;BME280;23099;42.636;23.198;2023-04-04T20:48:47;91410.53;;;0.86;93.86
37206;BME280;23099;42.636;23.198;2023-04-04T20:51:23;91409.25;;;0.92;93.49
37206;BME280;23099;42.636;23.198;2023-04-04T20:53:53;91410.06;;;0.84;92.32